sensor_id;sensor_type;location;lat;lon;timestamp;P1;durP1;ratioP1;P2;durP2;ratioP2
8230;SDS011;4156;50.908;6.974;2023-06-22T00:02:12;4.97;;;3.70;;
8230;SDS011;4156;50.908;6.974;2023-06-22T00:04:38;5.00;;;4.07;;
8230;SDS011;4156;50.908;6.974;2023-06-22T00:07:04;4.13;;;3.50;;
8230;SDS011;4156;50.908;6.974;2023-06-22T00:09:30;3.67;;;3.33;;
8230;SDS011;4156;50.908;6.974;2023-06-22T00:11:57;3.78;;;3.17;;
8230;SDS011;4156;50.908;6.974;2023-06-22T00:14:23;3.92;;;3.45;;
8230;SDS011;4156;50.908;6.974;2023-06-22T00:16:48;5.20;;;3.88;;
8230;SDS011;4156;50.908;6.974;2023-06-22T00:19:17;3.78;;;3.40;;
8230;SDS011;4156;50.908;6.974;2023-06-22T00:21:44;4.90;;;3.70;;
8230;SDS011;4156;50.908;6.974;2023-06-22T00:24:12;4.88;;;3.65;;
8230;SDS011;4156;50.908;6.974;2023-06-22T00:26:37;4.78;;;3.60;;
8230;SDS011;4156;50.908;6.974;2023-06-22T00:29:03;4.63;;;3.53;;
8230;SDS011;4156;50.908;6.974;2023-06-22T00:31:29;4.43;;;3.50;;
8230;SDS011;4156;50.908;6.974;2023-06-22T00:33:54;3.78;;;3.30;;
8230;SDS011;4156;50.908;6.974;2023-06-22T00:36:20;4.68;;;3.88;;
8230;SDS011;4156;50.908;6.974;2023-06-22T00:38:45;4.63;;;3.70;;
8230;SDS011;4156;50.908;6.974;2023-06-22T00:41:11;5.15;;;3.78;;
8230;SDS011;4156;50.908;6.974;2023-06-22T00:43:36;4.78;;;4.05;;
8230;SDS011;4156;50.908;6.974;2023-06-22T00:46:02;4.63;;;3.65;;
8230;SDS011;4156;50.908;6.974;2023-06-22T00:48:28;5.13;;;3.90;;
8230;SDS011;4156;50.908;6.974;2023-06-22T00:50:53;4.22;;;3.30;;
8230;SDS011;4156;50.908;6.974;2023-06-22T00:53:20;4.13;;;3.65;;
8230;SDS011;4156;50.908;6.974;2023-06-22T00:55:46;4.22;;;3.80;;
8230;SDS011;4156;50.908;6.974;2023-06-22T00:58:12;4.60;;;3.83;;
8230;SDS011;4156;50.908;6.974;2023-06-22T01:00:38;5.38;;;4.07;;
8230;SDS011;4156;50.908;6.974;2023-06-22T01:03:05;4.47;;;3.45;;
8230;SDS011;4156;50.908;6.974;2023-06-22T01:05:34;4.30;;;3.90;;
8230;SDS011;4156;50.908;6.974;2023-06-22T01:08:04;4.55;;;3.80;;
8230;SDS011;4156;50.908;6.974;2023-06-22T01:10:44;4.63;;;4.10;;
8230;SDS011;4156;50.908;6.974;2023-06-22T01:16:01;4.45;;;3.60;;
8230;SDS011;4156;50.908;6.974;2023-06-22T01:18:35;4.57;;;3.80;;
8230;SDS011;4156;50.908;6.974;2023-06-22T01:21:05;5.50;;;3.55;;
8230;SDS011;4156;50.908;6.974;2023-06-22T01:26:36;4.53;;;4.07;;
8230;SDS011;4156;50.908;6.974;2023-06-22T01:29:08;4.00;;;3.60;;
8230;SDS011;4156;50.908;6.974;2023-06-22T01:31:38;4.15;;;3.75;;
8230;SDS011;4156;50.908;6.974;2023-06-22T01:34:06;4.90;;;4.00;;
8230;SDS011;4156;50.908;6.974;2023-06-22T01:36:33;4.28;;;3.25;;
8230;SDS011;4156;50.908;6.974;2023-06-22T01:38:59;4.55;;;4.03;;
8230;SDS011;4156;50.908;6.974;2023-06-22T01:41:27;5.25;;;3.60;;
8230;SDS011;4156;50.908;6.974;2023-06-22T01:43:55;3.97;;;3.33;;
8230;SDS011;4156;50.908;6.974;2023-06-22T01:46:21;4.28;;;3.88;;
8230;SDS011;4156;50.908;6.974;2023-06-22T01:48:48;4.20;;;3.50;;
8230;SDS011;4156;50.908;6.974;2023-06-22T01:51:15;4.28;;;3.88;;
8230;SDS011;4156;50.908;6.974;2023-06-22T01:53:41;4.20;;;3.80;;
8230;SDS011;4156;50.908;6.974;2023-06-22T01:56:07;5.38;;;3.78;;
8230;SDS011;4156;50.908;6.974;2023-06-22T01:58:33;5.13;;;3.60;;
8230;SDS011;4156;50.908;6.974;2023-06-22T02:01:11;4.10;;;3.70;;
8230;SDS011;4156;50.908;6.974;2023-06-22T02:03:41;4.20;;;3.80;;
8230;SDS011;4156;50.908;6.974;2023-06-22T02:06:16;3.78;;;3.42;;
8230;SDS011;4156;50.908;6.974;2023-06-22T02:08:49;6.13;;;3.83;;
8230;SDS011;4156;50.908;6.974;2023-06-22T02:11:20;5.20;;;4.18;;
8230;SDS011;4156;50.908;6.974;2023-06-22T02:13:46;4.53;;;3.90;;
8230;SDS011;4156;50.908;6.974;2023-06-22T02:16:13;4.90;;;4.30;;
8230;SDS011;4156;50.908;6.974;2023-06-22T02:18:50;4.97;;;4.47;;
8230;SDS011;4156;50.908;6.974;2023-06-22T02:21:17;4.40;;;3.78;;
8230;SDS011;4156;50.908;6.974;2023-06-22T02:23:43;6.15;;;4.35;;
8230;SDS011;4156;50.908;6.974;2023-06-22T02:26:08;4.82;;;4.30;;
8230;SDS011;4156;50.908;6.974;2023-06-22T02:28:34;4.95;;;4.28;;
8230;SDS011;4156;50.908;6.974;2023-06-22T02:30:59;5.15;;;4.10;;
8230;SDS011;4156;50.908;6.974;2023-06-22T02:33:25;4.72;;;3.83;;
8230;SDS011;4156;50.908;6.974;2023-06-22T02:35:50;5.28;;;4.07;;
8230;SDS011;4156;50.908;6.974;2023-06-22T02:38:16;4.20;;;3.75;;
8230;SDS011;4156;50.908;6.974;2023-06-22T02:40:42;5.00;;;3.85;;
8230;SDS011;4156;50.908;6.974;2023-06-22T02:43:08;4.05;;;3.63;;
8230;SDS011;4156;50.908;6.974;2023-06-22T02:45:33;5.13;;;4.07;;
8230;SDS011;4156;50.908;6.974;2023-06-22T02:47:59;4.28;;;3.72;;
8230;SDS011;4156;50.908;6.974;2023-06-22T02:50:24;4.38;;;3.97;;
8230;SDS011;4156;50.908;6.974;2023-06-22T02:52:50;4.88;;;3.90;;
8230;SDS011;4156;50.908;6.974;2023-06-22T02:55:16;7.43;;;4.13;;
8230;SDS011;4156;50.908;6.974;2023-06-22T02:57:41;3.95;;;3.55;;
8230;SDS011;4156;50.908;6.974;2023-06-22T03:00:09;4.30;;;3.90;;
8230;SDS011;4156;50.908;6.974;2023-06-22T03:02:45;4.30;;;3.90;;
8230;SDS011;4156;50.908;6.974;2023-06-22T03:05:14;4.28;;;3.42;;
8230;SDS011;4156;50.908;6.974;2023-06-22T03:07:46;5.20;;;4.35;;
8230;SDS011;4156;50.908;6.974;2023-06-22T03:10:12;5.18;;;4.10;;
8230;SDS011;4156;50.908;6.974;2023-06-22T03:12:38;4.72;;;4.10;;
8230;SDS011;4156;50.908;6.974;2023-06-22T03:15:05;4.72;;;4.22;;
8230;SDS011;4156;50.908;6.974;2023-06-22T03:17:32;4.30;;;3.42;;
8230;SDS011;4156;50.908;6.974;2023-06-22T03:19:58;5.20;;;4.00;;
8230;SDS011;4156;50.908;6.974;2023-06-22T03:22:23;5.03;;;4.00;;
8230;SDS011;4156;50.908;6.974;2023-06-22T03:24:49;4.55;;;4.10;;
8230;SDS011;4156;50.908;6.974;2023-06-22T03:27:14;5.43;;;4.03;;
8230;SDS011;4156;50.908;6.974;2023-06-22T03:29:40;4.93;;;4.05;;
8230;SDS011;4156;50.908;6.974;2023-06-22T03:32:05;5.35;;;4.28;;
8230;SDS011;4156;50.908;6.974;2023-06-22T03:34:31;4.07;;;3.67;;
8230;SDS011;4156;50.908;6.974;2023-06-22T03:36:59;8.45;;;4.35;;
8230;SDS011;4156;50.908;6.974;2023-06-22T03:39:25;4.82;;;3.55;;
8230;SDS011;4156;50.908;6.974;2023-06-22T03:41:50;4.43;;;3.78;;
8230;SDS011;4156;50.908;6.974;2023-06-22T03:44:16;6.45;;;4.13;;
8230;SDS011;4156;50.908;6.974;2023-06-22T03:46:41;4.35;;;3.95;;
8230;SDS011;4156;50.908;6.974;2023-06-22T03:49:07;4.45;;;4.05;;
8230;SDS011;4156;50.908;6.974;2023-06-22T03:51:32;4.50;;;4.10;;
8230;SDS011;4156;50.908;6.974;2023-06-22T03:53:58;4.80;;;4.10;;
8230;SDS011;4156;50.908;6.974;2023-06-22T03:56:24;4.65;;;4.15;;
8230;SDS011;4156;50.908;6.974;2023-06-22T03:58:49;4.38;;;3.72;;
8230;SDS011;4156;50.908;6.974;2023-06-22T04:01:15;6.13;;;4.03;;
8230;SDS011;4156;50.908;6.974;2023-06-22T04:03:42;5.97;;;4.00;;
8230;SDS011;4156;50.908;6.974;2023-06-22T04:06:09;5.43;;;4.28;;
8230;SDS011;4156;50.908;6.974;2023-06-22T04:08:34;6.38;;;4.00;;
8230;SDS011;4156;50.908;6.974;2023-06-22T04:11:00;4.65;;;3.78;;
8230;SDS011;4156;50.908;6.974;2023-06-22T04:13:25;4.72;;;4.32;;
8230;SDS011;4156;50.908;6.974;2023-06-22T04:15:51;5.38;;;4.35;;
8230;SDS011;4156;50.908;6.974;2023-06-22T04:18:16;5.43;;;4.93;;
8230;SDS011;4156;50.908;6.974;2023-06-22T04:20:42;4.90;;;4.40;;
8230;SDS011;4156;50.908;6.974;2023-06-22T04:23:09;5.57;;;5.07;;
8230;SDS011;4156;50.908;6.974;2023-06-22T04:25:35;5.90;;;4.40;;
8230;SDS011;4156;50.908;6.974;2023-06-22T04:28:01;4.63;;;4.22;;
8230;SDS011;4156;50.908;6.974;2023-06-22T04:30:28;4.72;;;4.22;;
8230;SDS011;4156;50.908;6.974;2023-06-22T04:32:53;4.88;;;4.40;;
8230;SDS011;4156;50.908;6.974;2023-06-22T04:35:22;7.38;;;4.68;;
8230;SDS011;4156;50.908;6.974;2023-06-22T04:37:53;7.20;;;4.75;;
8230;SDS011;4156;50.908;6.974;2023-06-22T04:40:19;5.93;;;4.70;;
8230;SDS011;4156;50.908;6.974;2023-06-22T04:42:48;4.90;;;4.40;;
8230;SDS011;4156;50.908;6.974;2023-06-22T04:45:20;5.97;;;5.15;;
8230;SDS011;4156;50.908;6.974;2023-06-22T04:47:46;4.80;;;4.32;;
8230;SDS011;4156;50.908;6.974;2023-06-22T04:50:12;6.05;;;5.20;;
8230;SDS011;4156;50.908;6.974;2023-06-22T04:52:37;7.38;;;4.97;;
8230;SDS011;4156;50.908;6.974;2023-06-22T04:55:03;5.20;;;4.70;;
8230;SDS011;4156;50.908;6.974;2023-06-22T04:57:29;5.15;;;4.65;;
8230;SDS011;4156;50.908;6.974;2023-06-22T05:00:01;6.18;;;5.03;;
8230;SDS011;4156;50.908;6.974;2023-06-22T05:02:38;6.38;;;5.00;;
8230;SDS011;4156;50.908;6.974;2023-06-22T05:05:06;6.38;;;5.22;;
8230;SDS011;4156;50.908;6.974;2023-06-22T05:07:33;5.80;;;5.13;;
8230;SDS011;4156;50.908;6.974;2023-06-22T05:10:00;7.60;;;4.97;;
8230;SDS011;4156;50.908;6.974;2023-06-22T05:12:27;5.65;;;5.15;;
8230;SDS011;4156;50.908;6.974;2023-06-22T05:14:53;5.88;;;5.28;;
8230;SDS011;4156;50.908;6.974;2023-06-22T05:17:19;7.50;;;6.00;;
8230;SDS011;4156;50.908;6.974;2023-06-22T05:19:44;6.47;;;5.22;;
8230;SDS011;4156;50.908;6.974;2023-06-22T05:22:13;5.63;;;4.47;;
8230;SDS011;4156;50.908;6.974;2023-06-22T05:24:42;5.90;;;4.63;;
8230;SDS011;4156;50.908;6.974;2023-06-22T05:27:08;5.70;;;4.90;;
8230;SDS011;4156;50.908;6.974;2023-06-22T05:29:34;5.80;;;4.70;;
8230;SDS011;4156;50.908;6.974;2023-06-22T05:32:00;6.00;;;5.50;;
8230;SDS011;4156;50.908;6.974;2023-06-22T05:34:26;5.65;;;5.15;;
8230;SDS011;4156;50.908;6.974;2023-06-22T05:36:51;6.07;;;5.10;;
8230;SDS011;4156;50.908;6.974;2023-06-22T05:39:17;6.72;;;5.13;;
8230;SDS011;4156;50.908;6.974;2023-06-22T05:41:42;6.05;;;5.50;;
8230;SDS011;4156;50.908;6.974;2023-06-22T05:44:09;7.63;;;5.55;;
8230;SDS011;4156;50.908;6.974;2023-06-22T05:46:34;6.25;;;5.38;;
8230;SDS011;4156;50.908;6.974;2023-06-22T05:49:00;10.48;;;5.88;;
8230;SDS011;4156;50.908;6.974;2023-06-22T05:51:26;6.25;;;5.65;;
8230;SDS011;4156;50.908;6.974;2023-06-22T05:53:51;7.40;;;5.70;;
8230;SDS011;4156;50.908;6.974;2023-06-22T05:56:17;7.35;;;5.75;;
8230;SDS011;4156;50.908;6.974;2023-06-22T05:58:42;5.85;;;5.22;;
8230;SDS011;4156;50.908;6.974;2023-06-22T06:01:08;5.80;;;5.05;;
8230;SDS011;4156;50.908;6.974;2023-06-22T06:03:33;6.35;;;5.75;;
8230;SDS011;4156;50.908;6.974;2023-06-22T06:05:59;6.70;;;5.10;;
8230;SDS011;4156;50.908;6.974;2023-06-22T06:08:27;5.10;;;4.60;;
8230;SDS011;4156;50.908;6.974;2023-06-22T06:10:53;6.47;;;5.03;;
8230;SDS011;4156;50.908;6.974;2023-06-22T06:13:20;6.22;;;5.63;;
8230;SDS011;4156;50.908;6.974;2023-06-22T06:15:45;5.70;;;5.18;;
8230;SDS011;4156;50.908;6.974;2023-06-22T06:18:11;6.32;;;5.68;;
8230;SDS011;4156;50.908;6.974;2023-06-22T06:20:36;5.63;;;5.10;;
8230;SDS011;4156;50.908;6.974;2023-06-22T06:23:02;6.18;;;5.57;;
8230;SDS011;4156;50.908;6.974;2023-06-22T06:25:27;5.95;;;5.22;;
8230;SDS011;4156;50.908;6.974;2023-06-22T06:27:53;6.80;;;5.35;;
8230;SDS011;4156;50.908;6.974;2023-06-22T06:30:19;5.63;;;5.13;;
8230;SDS011;4156;50.908;6.974;2023-06-22T06:32:45;5.57;;;5.05;;
8230;SDS011;4156;50.908;6.974;2023-06-22T06:35:12;5.65;;;5.15;;
8230;SDS011;4156;50.908;6.974;2023-06-22T06:37:41;5.55;;;4.82;;
8230;SDS011;4156;50.908;6.974;2023-06-22T06:40:08;5.68;;;5.13;;
8230;SDS011;4156;50.908;6.974;2023-06-22T06:42:36;5.80;;;4.45;;
8230;SDS011;4156;50.908;6.974;2023-06-22T06:45:04;6.68;;;5.20;;
8230;SDS011;4156;50.908;6.974;2023-06-22T06:47:30;6.13;;;5.53;;
8230;SDS011;4156;50.908;6.974;2023-06-22T06:49:55;5.80;;;5.20;;
8230;SDS011;4156;50.908;6.974;2023-06-22T06:52:21;5.72;;;5.22;;
8230;SDS011;4156;50.908;6.974;2023-06-22T06:54:46;6.78;;;5.53;;
8230;SDS011;4156;50.908;6.974;2023-06-22T06:57:12;5.85;;;5.25;;
8230;SDS011;4156;50.908;6.974;2023-06-22T06:59:38;6.60;;;6.00;;
8230;SDS011;4156;50.908;6.974;2023-06-22T07:02:04;6.22;;;5.63;;
8230;SDS011;4156;50.908;6.974;2023-06-22T07:04:30;6.13;;;5.53;;
8230;SDS011;4156;50.908;6.974;2023-06-22T07:06:55;5.93;;;5.10;;
8230;SDS011;4156;50.908;6.974;2023-06-22T07:09:21;5.25;;;4.55;;
8230;SDS011;4156;50.908;6.974;2023-06-22T07:11:46;5.50;;;5.00;;
8230;SDS011;4156;50.908;6.974;2023-06-22T07:14:12;5.20;;;4.70;;
8230;SDS011;4156;50.908;6.974;2023-06-22T07:16:37;5.55;;;5.00;;
8230;SDS011;4156;50.908;6.974;2023-06-22T07:19:03;5.55;;;5.05;;
8230;SDS011;4156;50.908;6.974;2023-06-22T07:21:28;4.75;;;4.32;;
8230;SDS011;4156;50.908;6.974;2023-06-22T07:23:54;5.47;;;4.60;;
8230;SDS011;4156;50.908;6.974;2023-06-22T07:26:19;5.97;;;5.33;;
8230;SDS011;4156;50.908;6.974;2023-06-22T07:28:45;5.25;;;4.28;;
8230;SDS011;4156;50.908;6.974;2023-06-22T07:31:11;5.68;;;5.05;;
8230;SDS011;4156;50.908;6.974;2023-06-22T07:33:36;6.22;;;5.43;;
8230;SDS011;4156;50.908;6.974;2023-06-22T07:36:02;6.25;;;5.55;;
8230;SDS011;4156;50.908;6.974;2023-06-22T07:38:32;5.68;;;5.10;;
8230;SDS011;4156;50.908;6.974;2023-06-22T07:40:58;6.10;;;5.50;;
8230;SDS011;4156;50.908;6.974;2023-06-22T07:43:23;6.05;;;5.40;;
8230;SDS011;4156;50.908;6.974;2023-06-22T07:45:49;7.03;;;5.72;;
8230;SDS011;4156;50.908;6.974;2023-06-22T07:48:19;5.18;;;4.68;;
8230;SDS011;4156;50.908;6.974;2023-06-22T07:50:46;5.90;;;5.15;;
8230;SDS011;4156;50.908;6.974;2023-06-22T07:53:11;5.47;;;4.95;;
8230;SDS011;4156;50.908;6.974;2023-06-22T07:55:37;7.15;;;5.05;;
8230;SDS011;4156;50.908;6.974;2023-06-22T07:58:02;6.78;;;5.15;;
8230;SDS011;4156;50.908;6.974;2023-06-22T08:00:28;5.15;;;4.65;;
8230;SDS011;4156;50.908;6.974;2023-06-22T08:02:53;5.38;;;4.65;;
8230;SDS011;4156;50.908;6.974;2023-06-22T08:05:19;4.90;;;4.40;;
8230;SDS011;4156;50.908;6.974;2023-06-22T08:07:44;4.90;;;4.40;;
8230;SDS011;4156;50.908;6.974;2023-06-22T08:10:10;4.95;;;4.43;;
8230;SDS011;4156;50.908;6.974;2023-06-22T08:12:36;5.13;;;4.63;;
8230;SDS011;4156;50.908;6.974;2023-06-22T08:15:02;4.78;;;4.38;;
8230;SDS011;4156;50.908;6.974;2023-06-22T08:17:28;4.88;;;4.32;;
8230;SDS011;4156;50.908;6.974;2023-06-22T08:19:54;5.50;;;4.63;;
8230;SDS011;4156;50.908;6.974;2023-06-22T08:22:19;6.03;;;4.70;;
8230;SDS011;4156;50.908;6.974;2023-06-22T08:24:45;6.00;;;5.40;;
8230;SDS011;4156;50.908;6.974;2023-06-22T08:27:10;5.40;;;4.90;;
8230;SDS011;4156;50.908;6.974;2023-06-22T08:29:40;5.43;;;4.90;;
8230;SDS011;4156;50.908;6.974;2023-06-22T08:32:08;5.18;;;4.63;;
8230;SDS011;4156;50.908;6.974;2023-06-22T08:34:34;5.32;;;4.63;;
8230;SDS011;4156;50.908;6.974;2023-06-22T08:37:00;5.35;;;4.82;;
8230;SDS011;4156;50.908;6.974;2023-06-22T08:39:26;5.05;;;4.55;;
8230;SDS011;4156;50.908;6.974;2023-06-22T08:41:52;5.30;;;4.80;;
8230;SDS011;4156;50.908;6.974;2023-06-22T08:44:18;5.00;;;4.50;;
8230;SDS011;4156;50.908;6.974;2023-06-22T08:46:44;5.07;;;4.53;;
8230;SDS011;4156;50.908;6.974;2023-06-22T08:49:10;4.80;;;4.35;;
8230;SDS011;4156;50.908;6.974;2023-06-22T08:51:36;8.02;;;5.25;;
8230;SDS011;4156;50.908;6.974;2023-06-22T08:54:01;4.97;;;4.47;;
8230;SDS011;4156;50.908;6.974;2023-06-22T08:56:27;6.18;;;4.28;;
8230;SDS011;4156;50.908;6.974;2023-06-22T08:58:52;5.25;;;4.75;;
8230;SDS011;4156;50.908;6.974;2023-06-22T09:01:18;5.43;;;4.90;;
8230;SDS011;4156;50.908;6.974;2023-06-22T09:03:44;5.45;;;4.95;;
8230;SDS011;4156;50.908;6.974;2023-06-22T09:06:18;5.22;;;4.65;;
8230;SDS011;4156;50.908;6.974;2023-06-22T09:08:44;5.10;;;4.57;;
8230;SDS011;4156;50.908;6.974;2023-06-22T09:11:11;5.18;;;4.68;;
8230;SDS011;4156;50.908;6.974;2023-06-22T09:13:36;4.85;;;4.35;;
8230;SDS011;4156;50.908;6.974;2023-06-22T09:16:02;4.90;;;4.45;;
8230;SDS011;4156;50.908;6.974;2023-06-22T09:18:28;5.22;;;4.70;;
8230;SDS011;4156;50.908;6.974;2023-06-22T09:20:53;6.15;;;4.88;;
8230;SDS011;4156;50.908;6.974;2023-06-22T09:23:19;4.93;;;4.43;;
8230;SDS011;4156;50.908;6.974;2023-06-22T09:25:44;5.93;;;4.85;;
8230;SDS011;4156;50.908;6.974;2023-06-22T09:28:12;5.28;;;4.78;;
8230;SDS011;4156;50.908;6.974;2023-06-22T09:30:37;5.28;;;4.68;;
8230;SDS011;4156;50.908;6.974;2023-06-22T09:33:03;5.72;;;5.10;;
8230;SDS011;4156;50.908;6.974;2023-06-22T09:35:28;6.07;;;5.07;;
8230;SDS011;4156;50.908;6.974;2023-06-22T09:37:54;5.70;;;5.10;;
8230;SDS011;4156;50.908;6.974;2023-06-22T09:40:19;6.70;;;4.45;;
8230;SDS011;4156;50.908;6.974;2023-06-22T09:42:45;5.13;;;4.60;;
8230;SDS011;4156;50.908;6.974;2023-06-22T09:45:10;6.55;;;4.85;;
8230;SDS011;4156;50.908;6.974;2023-06-22T09:47:36;4.82;;;4.32;;
8230;SDS011;4156;50.908;6.974;2023-06-22T09:50:02;5.65;;;4.93;;
8230;SDS011;4156;50.908;6.974;2023-06-22T09:52:28;5.80;;;4.60;;
8230;SDS011;4156;50.908;6.974;2023-06-22T09:54:53;6.00;;;4.72;;
8230;SDS011;4156;50.908;6.974;2023-06-22T09:57:19;5.97;;;5.10;;
8230;SDS011;4156;50.908;6.974;2023-06-22T09:59:44;5.35;;;4.85;;
8230;SDS011;4156;50.908;6.974;2023-06-22T10:02:10;5.10;;;4.60;;
8230;SDS011;4156;50.908;6.974;2023-06-22T10:04:36;5.97;;;4.93;;
8230;SDS011;4156;50.908;6.974;2023-06-22T10:07:02;4.75;;;4.30;;
8230;SDS011;4156;50.908;6.974;2023-06-22T10:09:27;7.80;;;5.15;;
8230;SDS011;4156;50.908;6.974;2023-06-22T10:11:53;5.72;;;4.75;;
8230;SDS011;4156;50.908;6.974;2023-06-22T10:14:18;6.13;;;4.90;;
8230;SDS011;4156;50.908;6.974;2023-06-22T10:16:46;5.22;;;4.32;;
8230;SDS011;4156;50.908;6.974;2023-06-22T10:19:12;4.88;;;4.22;;
8230;SDS011;4156;50.908;6.974;2023-06-22T10:21:47;5.50;;;4.50;;
8230;SDS011;4156;50.908;6.974;2023-06-22T10:24:28;5.30;;;4.60;;
8230;SDS011;4156;50.908;6.974;2023-06-22T10:26:53;10.63;;;4.95;;
8230;SDS011;4156;50.908;6.974;2023-06-22T10:29:19;4.90;;;4.43;;
8230;SDS011;4156;50.908;6.974;2023-06-22T10:31:45;7.32;;;5.72;;
8230;SDS011;4156;50.908;6.974;2023-06-22T10:34:11;7.50;;;6.70;;
8230;SDS011;4156;50.908;6.974;2023-06-22T10:36:37;7.15;;;5.35;;
8230;SDS011;4156;50.908;6.974;2023-06-22T10:39:04;8.13;;;5.43;;
8230;SDS011;4156;50.908;6.974;2023-06-22T10:41:39;6.13;;;5.10;;
8230;SDS011;4156;50.908;6.974;2023-06-22T10:44:16;8.60;;;5.55;;
8230;SDS011;4156;50.908;6.974;2023-06-22T10:46:54;11.88;;;6.63;;
8230;SDS011;4156;50.908;6.974;2023-06-22T10:49:24;9.68;;;6.45;;
8230;SDS011;4156;50.908;6.974;2023-06-22T10:52:16;7.40;;;6.10;;
8230;SDS011;4156;50.908;6.974;2023-06-22T10:54:47;8.88;;;6.32;;
8230;SDS011;4156;50.908;6.974;2023-06-22T10:57:27;7.35;;;6.10;;
8230;SDS011;4156;50.908;6.974;2023-06-22T10:59:57;9.52;;;6.25;;
8230;SDS011;4156;50.908;6.974;2023-06-22T11:02:38;8.73;;;6.90;;
8230;SDS011;4156;50.908;6.974;2023-06-22T11:05:19;8.90;;;6.55;;
8230;SDS011;4156;50.908;6.974;2023-06-22T11:07:49;6.10;;;5.50;;
8230;SDS011;4156;50.908;6.974;2023-06-22T11:10:15;8.88;;;6.88;;
8230;SDS011;4156;50.908;6.974;2023-06-22T11:12:52;8.90;;;6.60;;
8230;SDS011;4156;50.908;6.974;2023-06-22T11:15:31;8.80;;;7.43;;
8230;SDS011;4156;50.908;6.974;2023-06-22T11:18:01;12.63;;;7.60;;
8230;SDS011;4156;50.908;6.974;2023-06-22T11:20:33;9.45;;;7.20;;
8230;SDS011;4156;50.908;6.974;2023-06-22T11:23:07;8.05;;;6.68;;
8230;SDS011;4156;50.908;6.974;2023-06-22T11:36:02;9.13;;;6.80;;
8230;SDS011;4156;50.908;6.974;2023-06-22T12:10:12;8.98;;;7.38;;
8230;SDS011;4156;50.908;6.974;2023-06-22T13:06:37;10.77;;;7.63;;
8230;SDS011;4156;50.908;6.974;2023-06-22T13:38:46;8.65;;;6.07;;
8230;SDS011;4156;50.908;6.974;2023-06-22T14:15:58;4.68;;;3.92;;
8230;SDS011;4156;50.908;6.974;2023-06-22T14:29:27;6.53;;;4.13;;
8230;SDS011;4156;50.908;6.974;2023-06-22T14:39:46;5.40;;;4.40;;
8230;SDS011;4156;50.908;6.974;2023-06-22T14:56:12;6.70;;;5.32;;
8230;SDS011;4156;50.908;6.974;2023-06-22T14:58:46;5.60;;;4.93;;
8230;SDS011;4156;50.908;6.974;2023-06-22T15:01:12;5.20;;;4.70;;
8230;SDS011;4156;50.908;6.974;2023-06-22T15:03:39;7.35;;;5.40;;
8230;SDS011;4156;50.908;6.974;2023-06-22T15:06:04;7.20;;;5.10;;
8230;SDS011;4156;50.908;6.974;2023-06-22T15:08:30;6.45;;;4.65;;
8230;SDS011;4156;50.908;6.974;2023-06-22T15:10:58;7.13;;;4.85;;
8230;SDS011;4156;50.908;6.974;2023-06-22T15:13:25;5.85;;;4.80;;
8230;SDS011;4156;50.908;6.974;2023-06-22T15:15:52;8.35;;;5.20;;
8230;SDS011;4156;50.908;6.974;2023-06-22T15:18:18;6.80;;;5.45;;
8230;SDS011;4156;50.908;6.974;2023-06-22T15:20:44;17.98;;;7.07;;
8230;SDS011;4156;50.908;6.974;2023-06-22T15:23:10;7.18;;;5.60;;
8230;SDS011;4156;50.908;6.974;2023-06-22T15:25:37;6.22;;;5.63;;
8230;SDS011;4156;50.908;6.974;2023-06-22T15:28:02;10.27;;;6.28;;
8230;SDS011;4156;50.908;6.974;2023-06-22T15:30:28;7.90;;;4.95;;
8230;SDS011;4156;50.908;6.974;2023-06-22T15:32:54;7.38;;;5.10;;
8230;SDS011;4156;50.908;6.974;2023-06-22T15:35:20;5.78;;;4.78;;
8230;SDS011;4156;50.908;6.974;2023-06-22T15:37:45;7.32;;;5.40;;
8230;SDS011;4156;50.908;6.974;2023-06-22T15:40:11;5.55;;;4.88;;
8230;SDS011;4156;50.908;6.974;2023-06-22T15:42:37;7.45;;;5.38;;
8230;SDS011;4156;50.908;6.974;2023-06-22T15:45:02;9.38;;;6.13;;
8230;SDS011;4156;50.908;6.974;2023-06-22T15:47:29;7.22;;;5.13;;
8230;SDS011;4156;50.908;6.974;2023-06-22T15:49:55;6.72;;;5.72;;
8230;SDS011;4156;50.908;6.974;2023-06-22T15:52:20;6.88;;;5.55;;
8230;SDS011;4156;50.908;6.974;2023-06-22T15:54:46;12.43;;;6.85;;
8230;SDS011;4156;50.908;6.974;2023-06-22T15:57:12;6.68;;;5.32;;
8230;SDS011;4156;50.908;6.974;2023-06-22T15:59:38;8.38;;;6.15;;
8230;SDS011;4156;50.908;6.974;2023-06-22T16:02:07;7.72;;;5.60;;
8230;SDS011;4156;50.908;6.974;2023-06-22T16:04:34;6.40;;;5.80;;
8230;SDS011;4156;50.908;6.974;2023-06-22T16:07:00;10.45;;;5.88;;
8230;SDS011;4156;50.908;6.974;2023-06-22T16:09:26;6.22;;;5.50;;
8230;SDS011;4156;50.908;6.974;2023-06-22T16:11:52;8.80;;;6.70;;
8230;SDS011;4156;50.908;6.974;2023-06-22T16:14:17;6.53;;;5.82;;
8230;SDS011;4156;50.908;6.974;2023-06-22T16:16:43;7.07;;;6.33;;
8230;SDS011;4156;50.908;6.974;2023-06-22T16:19:08;7.60;;;5.78;;
8230;SDS011;4156;50.908;6.974;2023-06-22T16:21:34;6.20;;;5.50;;
8230;SDS011;4156;50.908;6.974;2023-06-22T16:23:59;5.78;;;5.15;;
8230;SDS011;4156;50.908;6.974;2023-06-22T16:26:25;7.28;;;5.35;;
8230;SDS011;4156;50.908;6.974;2023-06-22T16:28:51;7.30;;;4.95;;
8230;SDS011;4156;50.908;6.974;2023-06-22T16:31:17;5.95;;;5.25;;
8230;SDS011;4156;50.908;6.974;2023-06-22T16:33:43;5.47;;;4.97;;
8230;SDS011;4156;50.908;6.974;2023-06-22T16:36:13;5.80;;;4.57;;
8230;SDS011;4156;50.908;6.974;2023-06-22T16:38:38;5.65;;;4.63;;
8230;SDS011;4156;50.908;6.974;2023-06-22T16:41:04;5.43;;;4.07;;
8230;SDS011;4156;50.908;6.974;2023-06-22T16:43:32;7.32;;;4.82;;
8230;SDS011;4156;50.908;6.974;2023-06-22T16:45:58;5.22;;;4.70;;
8230;SDS011;4156;50.908;6.974;2023-06-22T16:48:24;8.00;;;4.88;;
8230;SDS011;4156;50.908;6.974;2023-06-22T16:50:49;5.43;;;4.35;;
8230;SDS011;4156;50.908;6.974;2023-06-22T16:53:15;5.22;;;4.47;;
8230;SDS011;4156;50.908;6.974;2023-06-22T16:55:42;6.60;;;4.75;;
8230;SDS011;4156;50.908;6.974;2023-06-22T16:58:09;6.60;;;4.50;;
8230;SDS011;4156;50.908;6.974;2023-06-22T17:00:38;4.65;;;4.00;;
8230;SDS011;4156;50.908;6.974;2023-06-22T17:03:06;5.57;;;4.68;;
8230;SDS011;4156;50.908;6.974;2023-06-22T17:05:33;6.10;;;4.20;;
8230;SDS011;4156;50.908;6.974;2023-06-22T17:08:01;6.18;;;4.40;;
8230;SDS011;4156;50.908;6.974;2023-06-22T17:10:28;5.60;;;4.40;;
8230;SDS011;4156;50.908;6.974;2023-06-22T17:12:55;8.00;;;4.30;;
8230;SDS011;4156;50.908;6.974;2023-06-22T17:15:21;4.43;;;4.03;;
8230;SDS011;4156;50.908;6.974;2023-06-22T17:17:47;4.97;;;4.47;;
8230;SDS011;4156;50.908;6.974;2023-06-22T17:20:13;8.85;;;4.22;;
8230;SDS011;4156;50.908;6.974;2023-06-22T17:22:38;6.15;;;4.20;;
8230;SDS011;4156;50.908;6.974;2023-06-22T17:25:08;3.90;;;3.50;;
8230;SDS011;4156;50.908;6.974;2023-06-22T17:27:34;7.10;;;4.25;;
8230;SDS011;4156;50.908;6.974;2023-06-22T17:30:04;4.05;;;3.20;;
8230;SDS011;4156;50.908;6.974;2023-06-22T17:32:34;4.07;;;3.40;;
8230;SDS011;4156;50.908;6.974;2023-06-22T17:34:59;4.45;;;3.47;;
8230;SDS011;4156;50.908;6.974;2023-06-22T17:37:25;4.68;;;3.97;;
8230;SDS011;4156;50.908;6.974;2023-06-22T17:39:52;5.25;;;3.63;;
8230;SDS011;4156;50.908;6.974;2023-06-22T17:42:21;6.13;;;4.20;;
8230;SDS011;4156;50.908;6.974;2023-06-22T17:44:50;5.05;;;4.10;;
8230;SDS011;4156;50.908;6.974;2023-06-22T17:47:25;4.68;;;3.75;;
8230;SDS011;4156;50.908;6.974;2023-06-22T17:49:51;4.97;;;3.40;;
8230;SDS011;4156;50.908;6.974;2023-06-22T17:52:17;4.90;;;3.70;;
8230;SDS011;4156;50.908;6.974;2023-06-22T17:54:43;4.90;;;3.72;;
8230;SDS011;4156;50.908;6.974;2023-06-22T17:57:15;4.82;;;3.72;;
8230;SDS011;4156;50.908;6.974;2023-06-22T17:59:42;6.72;;;4.30;;
8230;SDS011;4156;50.908;6.974;2023-06-22T18:02:13;5.40;;;3.35;;
8230;SDS011;4156;50.908;6.974;2023-06-22T18:04:42;4.18;;;3.78;;
8230;SDS011;4156;50.908;6.974;2023-06-22T18:07:08;4.30;;;3.90;;
8230;SDS011;4156;50.908;6.974;2023-06-22T18:09:35;5.05;;;3.65;;
8230;SDS011;4156;50.908;6.974;2023-06-22T18:12:01;4.70;;;3.85;;
8230;SDS011;4156;50.908;6.974;2023-06-22T18:14:29;4.10;;;3.50;;
8230;SDS011;4156;50.908;6.974;2023-06-22T18:16:58;4.88;;;4.38;;
8230;SDS011;4156;50.908;6.974;2023-06-22T18:19:24;5.15;;;4.65;;
8230;SDS011;4156;50.908;6.974;2023-06-22T18:21:51;6.10;;;5.50;;
8230;SDS011;4156;50.908;6.974;2023-06-22T18:24:18;5.10;;;4.70;;
8230;SDS011;4156;50.908;6.974;2023-06-22T18:26:44;7.03;;;6.18;;
8230;SDS011;4156;50.908;6.974;2023-06-22T18:29:11;7.05;;;6.45;;
8230;SDS011;4156;50.908;6.974;2023-06-22T18:31:37;6.70;;;6.00;;
8230;SDS011;4156;50.908;6.974;2023-06-22T18:34:03;8.27;;;7.32;;